sensor_id;sensor_type;location;lat;lon;timestamp;pressure;altitude;pressure_sealevel;temperature;humidity
58879;BME280;44660;42.664;23.266;2022-12-18T00:01:31;95275.75;;;8.43;71.62
58879;BME280;44660;42.664;23.266;2022-12-18T00:03:56;95266.03;;;8.24;71.65
58879;BME280;44660;42.664;23.266;2022-12-18T00:06:26;95297.97;;;8.42;71.71
58879;BME280;44660;42.664;23.266;2022-12-18T00:08:53;95279.28;;;8.24;72.11
58879;BME280;44660;42.664;23.266;2022-12-18T00:11:21;95200.06;;;7.57;72.04
58879;BME280;44660;42.664;23.266;2022-12-18T00:13:47;95298.84;;;8.23;72.38
58879;BME280;44660;42.664;23.266;2022-12-18T00:16:15;95275.91;;;8.03;72.23
58879;BME280;44660;42.664;23.266;2022-12-18T00:18:42;95267.19;;;7.89;72.17
58879;BME280;44660;42.664;23.266;2022-12-18T00:21:09;95305.00;;;8.16;72.09
58879;BME280;44660;42.664;23.266;2022-12-18T00:23:36;95298.09;;;8.02;72.37
58879;BME280;44660;42.664;23.266;2022-12-18T00:26:05;95309.91;;;8.06;72.54
58879;BME280;44660;42.664;23.266;2022-12-18T00:28:32;95288.75;;;7.93;72.32
58879;BME280;44660;42.664;23.266;2022-12-18T00:31:06;95303.41;;;8.02;72.32
58879;BME280;44660;42.664;23.266;2022-12-18T00:33:31;95289.84;;;7.65;72.23
58879;BME280;44660;42.664;23.266;2022-12-18T00:36:01;95326.88;;;7.78;72.79
58879;BME280;44660;42.664;23.266;2022-12-18T00:38:28;95316.06;;;7.73;72.96
58879;BME280;44660;42.664;23.266;2022-12-18T00:40:53;95319.97;;;7.64;72.75
58879;BME280;44660;42.664;23.266;2022-12-18T00:43:19;95258.94;;;7.32;72.80
58879;BME280;44660;42.664;23.266;2022-12-18T00:45:45;95332.00;;;7.60;72.91
58879;BME280;44660;42.664;23.266;2022-12-18T00:48:10;95344.41;;;7.66;72.81
58879;BME280;44660;42.664;23.266;2022-12-18T00:50:36;95316.91;;;7.60;72.63
58879;BME280;44660;42.664;23.266;2022-12-18T00:53:01;95340.13;;;7.65;72.55
58879;BME280;44660;42.664;23.266;2022-12-18T00:55:27;95316.31;;;7.58;72.30
58879;BME280;44660;42.664;23.266;2022-12-18T00:57:52;95317.34;;;7.57;71.91
58879;BME280;44660;42.664;23.266;2022-12-18T01:00:18;95340.56;;;7.62;71.95
58879;BME280;44660;42.664;23.266;2022-12-18T01:02:43;95334.81;;;7.51;71.76
58879;BME280;44660;42.664;23.266;2022-12-18T01:05:14;95343.41;;;7.47;71.80
58879;BME280;44660;42.664;23.266;2022-12-18T01:07:40;95354.56;;;7.42;72.04
58879;BME280;44660;42.664;23.266;2022-12-18T01:10:07;95339.53;;;7.23;71.57
58879;BME280;44660;42.664;23.266;2022-12-18T01:12:33;95337.22;;;6.93;71.53
58879;BME280;44660;42.664;23.266;2022-12-18T01:14:59;95353.09;;;6.93;71.99
58879;BME280;44660;42.664;23.266;2022-12-18T01:17:24;95366.53;;;6.98;72.41
58879;BME280;44660;42.664;23.266;2022-12-18T01:19:50;95344.53;;;6.91;72.51
58879;BME280;44660;42.664;23.266;2022-12-18T01:22:16;95360.84;;;7.01;72.42
58879;BME280;44660;42.664;23.266;2022-12-18T01:24:41;95376.31;;;7.04;72.10
58879;BME280;44660;42.664;23.266;2022-12-18T01:27:07;95361.44;;;6.90;72.28
58879;BME280;44660;42.664;23.266;2022-12-18T01:29:32;95360.22;;;6.99;72.48
58879;BME280;44660;42.664;23.266;2022-12-18T01:31:58;95351.06;;;6.95;72.82
58879;BME280;44660;42.664;23.266;2022-12-18T01:34:23;95373.44;;;6.92;72.68
58879;BME280;44660;42.664;23.266;2022-12-18T01:36:49;95370.31;;;6.68;73.18
58879;BME280;44660;42.664;23.266;2022-12-18T01:39:17;95379.00;;;6.56;72.88
58879;BME280;44660;42.664;23.266;2022-12-18T01:41:44;95375.34;;;6.57;73.12
58879;BME280;44660;42.664;23.266;2022-12-18T01:49:46;95378.59;;;6.59;73.23
58879;BME280;44660;42.664;23.266;2022-12-18T01:52:11;95384.09;;;6.64;72.88
58879;BME280;44660;42.664;23.266;2022-12-18T01:54:37;95383.28;;;6.57;72.71
58879;BME280;44660;42.664;23.266;2022-12-18T01:57:03;95391.91;;;6.37;72.85
58879;BME280;44660;42.664;23.266;2022-12-18T01:59:29;95284.75;;;5.79;73.03
58879;BME280;44660;42.664;23.266;2022-12-18T02:01:57;95373.06;;;6.53;72.55
58879;BME280;44660;42.664;23.266;2022-12-18T02:04:26;95388.38;;;6.65;72.67
58879;BME280;44660;42.664;23.266;2022-12-18T02:09:52;95395.28;;;6.66;73.05
58879;BME280;44660;42.664;23.266;2022-12-18T02:12:23;95395.31;;;6.73;73.22
58879;BME280;44660;42.664;23.266;2022-12-18T02:14:57;95383.09;;;6.65;72.80
58879;BME280;44660;42.664;23.266;2022-12-18T02:17:48;95399.38;;;6.75;72.98
58879;BME280;44660;42.664;23.266;2022-12-18T02:20:39;95402.66;;;6.77;73.08
58879;BME280;44660;42.664;23.266;2022-12-18T02:28:25;95407.72;;;6.72;73.04
58879;BME280;44660;42.664;23.266;2022-12-18T02:30:52;95405.31;;;6.77;73.17
58879;BME280;44660;42.664;23.266;2022-12-18T02:33:20;95416.03;;;6.69;73.38
58879;BME280;44660;42.664;23.266;2022-12-18T02:35:47;95414.81;;;6.65;73.85
58879;BME280;44660;42.664;23.266;2022-12-18T02:38:15;95408.06;;;6.56;73.83
58879;BME280;44660;42.664;23.266;2022-12-18T02:40:42;95418.44;;;6.64;73.59
58879;BME280;44660;42.664;23.266;2022-12-18T02:43:11;95412.50;;;6.55;73.60
58879;BME280;44660;42.664;23.266;2022-12-18T02:45:46;95407.50;;;6.25;72.96
58879;BME280;44660;42.664;23.266;2022-12-18T02:48:12;95397.19;;;6.02;72.56
58879;BME280;44660;42.664;23.266;2022-12-18T02:50:41;95432.47;;;6.23;72.21
58879;BME280;44660;42.664;23.266;2022-12-18T02:53:18;95424.91;;;6.19;72.51
58879;BME280;44660;42.664;23.266;2022-12-18T03:01:02;95411.13;;;6.24;72.21
58879;BME280;44660;42.664;23.266;2022-12-18T03:03:35;95407.69;;;6.24;72.13
58879;BME280;44660;42.664;23.266;2022-12-18T03:06:11;95406.06;;;6.23;71.80
58879;BME280;44660;42.664;23.266;2022-12-18T03:08:43;95434.81;;;6.39;72.01
58879;BME280;44660;42.664;23.266;2022-12-18T03:11:10;95435.41;;;6.41;72.09
58879;BME280;44660;42.664;23.266;2022-12-18T03:13:52;95420.50;;;6.27;71.97
58879;BME280;44660;42.664;23.266;2022-12-18T03:16:27;95441.78;;;6.18;72.12
58879;BME280;44660;42.664;23.266;2022-12-18T03:18:58;95447.53;;;6.29;72.03
58879;BME280;44660;42.664;23.266;2022-12-18T03:21:29;95447.88;;;6.19;71.70
58879;BME280;44660;42.664;23.266;2022-12-18T03:23:58;95444.91;;;5.79;71.95
58879;BME280;44660;42.664;23.266;2022-12-18T03:26:25;95445.97;;;5.84;72.09
58879;BME280;44660;42.664;23.266;2022-12-18T03:28:55;95380.63;;;5.36;72.10
58879;BME280;44660;42.664;23.266;2022-12-18T03:31:23;95444.91;;;5.79;71.97
58879;BME280;44660;42.664;23.266;2022-12-18T03:33:55;95438.13;;;5.69;72.40
58879;BME280;44660;42.664;23.266;2022-12-18T03:36:23;95414.34;;;5.63;72.46
58879;BME280;44660;42.664;23.266;2022-12-18T03:38:49;95437.59;;;5.52;72.56
58879;BME280;44660;42.664;23.266;2022-12-18T03:44:13;95475.78;;;5.56;73.10
58879;BME280;44660;42.664;23.266;2022-12-18T03:49:25;95460.31;;;5.53;72.39
58879;BME280;44660;42.664;23.266;2022-12-18T03:52:03;95483.94;;;5.62;72.42
58879;BME280;44660;42.664;23.266;2022-12-18T03:54:31;95459.81;;;5.43;72.56
58879;BME280;44660;42.664;23.266;2022-12-18T03:57:05;95487.78;;;5.59;72.32
58879;BME280;44660;42.664;23.266;2022-12-18T03:59:32;95478.53;;;5.48;72.12
58879;BME280;44660;42.664;23.266;2022-12-18T04:02:00;95474.69;;;5.29;72.70
58879;BME280;44660;42.664;23.266;2022-12-18T04:04:27;95490.44;;;5.22;72.57
58879;BME280;44660;42.664;23.266;2022-12-18T04:06:54;95441.78;;;4.88;73.06
58879;BME280;44660;42.664;23.266;2022-12-18T04:09:20;95453.06;;;4.82;72.72
58879;BME280;44660;42.664;23.266;2022-12-18T04:11:46;95496.44;;;5.16;72.51
58879;BME280;44660;42.664;23.266;2022-12-18T04:14:12;95509.16;;;5.28;71.87
58879;BME280;44660;42.664;23.266;2022-12-18T04:16:38;95419.44;;;4.84;71.64
58879;BME280;44660;42.664;23.266;2022-12-18T04:19:04;95492.06;;;5.23;72.15
58879;BME280;44660;42.664;23.266;2022-12-18T04:21:29;95506.53;;;5.28;71.92
58879;BME280;44660;42.664;23.266;2022-12-18T04:23:55;95528.38;;;5.06;72.31
58879;BME280;44660;42.664;23.266;2022-12-18T04:26:20;95480.91;;;4.70;72.16
58879;BME280;44660;42.664;23.266;2022-12-18T04:28:46;95525.53;;;5.23;72.34
58879;BME280;44660;42.664;23.266;2022-12-18T04:31:12;95526.97;;;5.26;72.04
58879;BME280;44660;42.664;23.266;2022-12-18T04:33:37;95485.66;;;4.96;71.30
58879;BME280;44660;42.664;23.266;2022-12-18T04:36:03;95532.63;;;5.22;71.45
58879;BME280;44660;42.664;23.266;2022-12-18T04:38:28;95553.66;;;5.16;71.73
58879;BME280;44660;42.664;23.266;2022-12-18T04:40:54;95554.09;;;5.19;71.19
58879;BME280;44660;42.664;23.266;2022-12-18T04:43:20;95556.75;;;5.19;71.00
58879;BME280;44660;42.664;23.266;2022-12-18T04:45:45;95553.44;;;5.32;70.76
58879;BME280;44660;42.664;23.266;2022-12-18T04:48:11;95557.75;;;5.18;70.49
58879;BME280;44660;42.664;23.266;2022-12-18T04:50:37;95538.13;;;5.06;70.33
58879;BME280;44660;42.664;23.266;2022-12-18T04:53:02;95546.59;;;4.86;70.44
58879;BME280;44660;42.664;23.266;2022-12-18T04:55:28;95554.22;;;4.81;70.63
58879;BME280;44660;42.664;23.266;2022-12-18T04:57:53;95576.19;;;4.73;71.33
58879;BME280;44660;42.664;23.266;2022-12-18T05:00:19;95578.03;;;4.88;70.87
58879;BME280;44660;42.664;23.266;2022-12-18T05:02:45;95578.13;;;4.95;70.77
58879;BME280;44660;42.664;23.266;2022-12-18T05:05:10;95591.28;;;5.10;70.64
58879;BME280;44660;42.664;23.266;2022-12-18T05:07:36;95566.66;;;5.02;70.21
58879;BME280;44660;42.664;23.266;2022-12-18T05:10:01;95568.63;;;5.15;69.85
58879;BME280;44660;42.664;23.266;2022-12-18T05:12:27;95592.44;;;5.37;69.60
58879;BME280;44660;42.664;23.266;2022-12-18T05:14:52;95599.16;;;5.39;69.49
58879;BME280;44660;42.664;23.266;2022-12-18T05:17:18;95583.44;;;5.31;69.19
58879;BME280;44660;42.664;23.266;2022-12-18T05:19:43;95597.63;;;5.45;69.65
58879;BME280;44660;42.664;23.266;2022-12-18T05:22:10;95601.47;;;5.28;69.99
58879;BME280;44660;42.664;23.266;2022-12-18T05:24:36;95580.81;;;5.16;69.80
58879;BME280;44660;42.664;23.266;2022-12-18T05:27:02;95592.81;;;5.34;69.79
58879;BME280;44660;42.664;23.266;2022-12-18T05:29:28;95605.41;;;5.53;69.73
58879;BME280;44660;42.664;23.266;2022-12-18T05:31:53;95610.88;;;5.52;69.39
58879;BME280;44660;42.664;23.266;2022-12-18T05:34:19;95595.38;;;5.27;69.35
58879;BME280;44660;42.664;23.266;2022-12-18T05:36:44;95611.72;;;5.37;69.22
58879;BME280;44660;42.664;23.266;2022-12-18T05:39:09;95622.09;;;5.39;68.91
58879;BME280;44660;42.664;23.266;2022-12-18T05:41:35;95576.13;;;5.12;69.22
58879;BME280;44660;42.664;23.266;2022-12-18T05:44:01;95611.34;;;5.40;69.09
58879;BME280;44660;42.664;23.266;2022-12-18T05:46:26;95608.44;;;5.50;68.61
58879;BME280;44660;42.664;23.266;2022-12-18T05:48:52;95619.44;;;5.54;68.73
58879;BME280;44660;42.664;23.266;2022-12-18T05:51:19;95626.63;;;5.60;68.77
58879;BME280;44660;42.664;23.266;2022-12-18T05:53:45;95619.00;;;5.50;68.60
58879;BME280;44660;42.664;23.266;2022-12-18T05:56:14;95633.63;;;5.53;68.53
58879;BME280;44660;42.664;23.266;2022-12-18T05:58:40;95557.56;;;5.05;68.83
58879;BME280;44660;42.664;23.266;2022-12-18T06:01:12;95644.00;;;5.54;68.17
58879;BME280;44660;42.664;23.266;2022-12-18T06:03:38;95619.00;;;5.20;68.34
58879;BME280;44660;42.664;23.266;2022-12-18T06:06:11;95653.03;;;5.45;68.24
58879;BME280;44660;42.664;23.266;2022-12-18T06:08:37;95642.47;;;5.45;68.34
58879;BME280;44660;42.664;23.266;2022-12-18T06:11:02;95646.09;;;5.44;68.37
58879;BME280;44660;42.664;23.266;2022-12-18T06:13:28;95649.38;;;5.46;67.77
58879;BME280;44660;42.664;23.266;2022-12-18T06:15:54;95665.03;;;5.33;67.84
58879;BME280;44660;42.664;23.266;2022-12-18T06:18:20;95647.41;;;5.18;68.35
58879;BME280;44660;42.664;23.266;2022-12-18T06:20:45;95640.66;;;5.01;67.91
58879;BME280;44660;42.664;23.266;2022-12-18T06:23:11;95667.22;;;5.14;67.75
58879;BME280;44660;42.664;23.266;2022-12-18T06:25:38;95659.84;;;5.10;67.61
58879;BME280;44660;42.664;23.266;2022-12-18T06:28:04;95663.94;;;5.12;67.63
58879;BME280;44660;42.664;23.266;2022-12-18T06:30:30;95662.94;;;5.13;67.84
58879;BME280;44660;42.664;23.266;2022-12-18T06:32:55;95681.69;;;5.33;67.69
58879;BME280;44660;42.664;23.266;2022-12-18T06:35:22;95651.84;;;5.18;67.25
58879;BME280;44660;42.664;23.266;2022-12-18T06:37:47;95674.78;;;5.32;67.46
58879;BME280;44660;42.664;23.266;2022-12-18T06:40:13;95697.94;;;5.37;67.11
58879;BME280;44660;42.664;23.266;2022-12-18T06:42:38;95692.13;;;5.27;67.15
58879;BME280;44660;42.664;23.266;2022-12-18T06:45:04;95651.19;;;5.01;67.04
58879;BME280;44660;42.664;23.266;2022-12-18T06:47:29;95672.31;;;5.16;66.97
58879;BME280;44660;42.664;23.266;2022-12-18T06:49:55;95690.59;;;5.17;66.71
58879;BME280;44660;42.664;23.266;2022-12-18T06:52:20;95678.94;;;4.97;66.76
58879;BME280;44660;42.664;23.266;2022-12-18T06:54:46;95720.84;;;5.21;66.80
58879;BME280;44660;42.664;23.266;2022-12-18T06:57:11;95707.50;;;5.08;66.64
58879;BME280;44660;42.664;23.266;2022-12-18T06:59:36;95697.34;;;4.82;66.30
58879;BME280;44660;42.664;23.266;2022-12-18T07:02:02;95694.47;;;5.06;66.55
58879;BME280;44660;42.664;23.266;2022-12-18T07:04:31;95715.41;;;5.38;66.57
58879;BME280;44660;42.664;23.266;2022-12-18T07:06:56;95709.31;;;5.22;65.97
58879;BME280;44660;42.664;23.266;2022-12-18T07:09:23;95721.41;;;5.32;65.99
58879;BME280;44660;42.664;23.266;2022-12-18T07:11:48;95729.97;;;5.34;66.19
58879;BME280;44660;42.664;23.266;2022-12-18T07:14:14;95722.50;;;5.22;66.20
58879;BME280;44660;42.664;23.266;2022-12-18T07:16:39;95711.41;;;5.12;65.76
58879;BME280;44660;42.664;23.266;2022-12-18T07:19:05;95724.31;;;5.37;65.77
58879;BME280;44660;42.664;23.266;2022-12-18T07:21:31;95721.69;;;5.22;65.83
58879;BME280;44660;42.664;23.266;2022-12-18T07:23:56;95712.75;;;5.23;65.61
58879;BME280;44660;42.664;23.266;2022-12-18T07:26:22;95732.69;;;5.26;65.02
58879;BME280;44660;42.664;23.266;2022-12-18T07:28:48;95724.69;;;5.34;65.48
58879;BME280;44660;42.664;23.266;2022-12-18T07:31:16;95734.69;;;5.23;65.24
58879;BME280;44660;42.664;23.266;2022-12-18T07:33:44;95734.47;;;5.10;65.70
58879;BME280;44660;42.664;23.266;2022-12-18T07:36:10;95740.22;;;5.14;65.61
58879;BME280;44660;42.664;23.266;2022-12-18T07:38:37;95744.31;;;5.16;65.35
58879;BME280;44660;42.664;23.266;2022-12-18T07:41:03;95749.44;;;5.33;65.02
58879;BME280;44660;42.664;23.266;2022-12-18T07:43:29;95743.16;;;5.34;65.39
58879;BME280;44660;42.664;23.266;2022-12-18T07:45:54;95712.59;;;5.25;64.94
58879;BME280;44660;42.664;23.266;2022-12-18T07:48:19;95745.25;;;5.38;64.85
58879;BME280;44660;42.664;23.266;2022-12-18T07:50:45;95697.56;;;5.10;65.19
58879;BME280;44660;42.664;23.266;2022-12-18T07:53:10;95739.53;;;5.50;65.34
58879;BME280;44660;42.664;23.266;2022-12-18T07:55:36;95762.72;;;5.54;64.91
58879;BME280;44660;42.664;23.266;2022-12-18T07:58:03;95723.44;;;5.30;64.93
58879;BME280;44660;42.664;23.266;2022-12-18T08:00:29;95600.25;;;4.55;65.10
58879;BME280;44660;42.664;23.266;2022-12-18T08:02:55;95674.00;;;4.94;65.57
58879;BME280;44660;42.664;23.266;2022-12-18T08:05:21;95558.44;;;3.99;65.35
58879;BME280;44660;42.664;23.266;2022-12-18T08:07:46;95602.31;;;4.45;65.15
58879;BME280;44660;42.664;23.266;2022-12-18T08:10:12;95808.13;;;5.50;65.31
58879;BME280;44660;42.664;23.266;2022-12-18T08:12:38;95781.09;;;5.48;65.57
58879;BME280;44660;42.664;23.266;2022-12-18T08:15:03;95727.22;;;5.12;65.22
58879;BME280;44660;42.664;23.266;2022-12-18T08:17:29;95786.03;;;5.66;64.85
58879;BME280;44660;42.664;23.266;2022-12-18T08:19:55;95693.47;;;5.07;64.59
58879;BME280;44660;42.664;23.266;2022-12-18T08:22:20;95763.44;;;5.48;64.37
58879;BME280;44660;42.664;23.266;2022-12-18T08:24:46;95787.75;;;5.59;64.78
58879;BME280;44660;42.664;23.266;2022-12-18T08:27:11;95772.88;;;5.28;64.97
58879;BME280;44660;42.664;23.266;2022-12-18T08:29:37;95781.25;;;5.31;64.77
58879;BME280;44660;42.664;23.266;2022-12-18T08:32:03;95705.34;;;4.88;64.57
58879;BME280;44660;42.664;23.266;2022-12-18T08:34:29;95804.84;;;5.48;64.92
58879;BME280;44660;42.664;23.266;2022-12-18T08:36:54;95811.50;;;5.59;65.07
58879;BME280;44660;42.664;23.266;2022-12-18T08:39:20;95778.38;;;5.41;64.88
58879;BME280;44660;42.664;23.266;2022-12-18T08:41:45;95796.50;;;5.59;64.93
58879;BME280;44660;42.664;23.266;2022-12-18T08:44:31;95772.72;;;5.44;64.89
58879;BME280;44660;42.664;23.266;2022-12-18T08:47:06;95808.31;;;5.63;64.67
58879;BME280;44660;42.664;23.266;2022-12-18T08:49:32;95763.19;;;5.28;65.04
58879;BME280;44660;42.664;23.266;2022-12-18T08:51:58;95770.63;;;5.25;65.09
58879;BME280;44660;42.664;23.266;2022-12-18T08:54:24;95797.56;;;5.35;65.25
58879;BME280;44660;42.664;23.266;2022-12-18T08:56:50;95814.75;;;5.31;65.26
58879;BME280;44660;42.664;23.266;2022-12-18T08:59:16;95777.22;;;5.05;65.12
58879;BME280;44660;42.664;23.266;2022-12-18T09:01:42;95706.56;;;4.63;64.98
58879;BME280;44660;42.664;23.266;2022-12-18T09:04:11;95773.03;;;5.11;65.27
58879;BME280;44660;42.664;23.266;2022-12-18T09:06:37;95788.16;;;5.17;65.55
58879;BME280;44660;42.664;23.266;2022-12-18T09:09:03;95809.53;;;5.22;65.17
58879;BME280;44660;42.664;23.266;2022-12-18T09:11:31;95812.25;;;5.14;65.66
58879;BME280;44660;42.664;23.266;2022-12-18T09:13:57;95799.81;;;5.38;65.64
58879;BME280;44660;42.664;23.266;2022-12-18T09:16:24;95806.09;;;5.37;65.28
58879;BME280;44660;42.664;23.266;2022-12-18T09:18:50;95762.03;;;5.07;65.44
58879;BME280;44660;42.664;23.266;2022-12-18T09:21:18;95795.53;;;5.22;65.38
58879;BME280;44660;42.664;23.266;2022-12-18T09:23:52;95787.34;;;5.32;65.33
58879;BME280;44660;42.664;23.266;2022-12-18T09:26:18;95784.47;;;5.42;64.69
58879;BME280;44660;42.664;23.266;2022-12-18T09:28:44;95805.78;;;5.55;65.30
58879;BME280;44660;42.664;23.266;2022-12-18T09:31:11;95764.63;;;5.46;64.88
58879;BME280;44660;42.664;23.266;2022-12-18T09:33:37;95798.59;;;5.64;64.09
58879;BME280;44660;42.664;23.266;2022-12-18T09:36:05;95793.66;;;5.61;63.81
58879;BME280;44660;42.664;23.266;2022-12-18T09:38:32;95809.78;;;5.81;63.92
58879;BME280;44660;42.664;23.266;2022-12-18T09:41:01;95786.84;;;5.51;63.61
58879;BME280;44660;42.664;23.266;2022-12-18T09:43:35;95780.56;;;5.52;63.67
58879;BME280;44660;42.664;23.266;2022-12-18T09:46:06;95766.72;;;5.35;63.37
58879;BME280;44660;42.664;23.266;2022-12-18T09:48:44;95800.16;;;5.73;63.53
58879;BME280;44660;42.664;23.266;2022-12-18T09:51:21;95811.06;;;5.85;63.11
58879;BME280;44660;42.664;23.266;2022-12-18T09:53:53;95797.78;;;5.93;63.04
58879;BME280;44660;42.664;23.266;2022-12-18T09:56:22;95807.00;;;6.12;64.67
58879;BME280;44660;42.664;23.266;2022-12-18T09:58:59;95803.88;;;6.24;63.94
58879;BME280;44660;42.664;23.266;2022-12-18T10:01:27;95792.47;;;6.38;66.05
58879;BME280;44660;42.664;23.266;2022-12-18T10:03:53;95771.25;;;6.31;65.14
58879;BME280;44660;42.664;23.266;2022-12-18T10:14:30;95786.50;;;6.51;61.53
58879;BME280;44660;42.664;23.266;2022-12-18T10:17:28;95800.84;;;6.42;60.59
58879;BME280;44660;42.664;23.266;2022-12-18T10:20:14;95807.31;;;6.39;60.09
58879;BME280;44660;42.664;23.266;2022-12-18T10:25:19;95800.59;;;6.36;62.07
58879;BME280;44660;42.664;23.266;2022-12-18T10:27:47;95796.88;;;6.52;61.47
58879;BME280;44660;42.664;23.266;2022-12-18T10:30:20;95804.94;;;6.44;60.45
58879;BME280;44660;42.664;23.266;2022-12-18T10:32:45;95811.94;;;6.52;60.56
58879;BME280;44660;42.664;23.266;2022-12-18T10:35:19;95774.88;;;6.45;59.97
58879;BME280;44660;42.664;23.266;2022-12-18T10:38:20;95815.34;;;6.67;61.18
58879;BME280;44660;42.664;23.266;2022-12-18T10:43:22;95782.22;;;6.50;56.81
58879;BME280;44660;42.664;23.266;2022-12-18T10:46:19;95792.09;;;6.41;56.81
58879;BME280;44660;42.664;23.266;2022-12-18T10:48:53;95812.13;;;6.50;56.95
58879;BME280;44660;42.664;23.266;2022-12-18T10:51:30;95812.06;;;6.29;55.91
58879;BME280;44660;42.664;23.266;2022-12-18T10:54:03;95809.44;;;6.29;56.14
58879;BME280;44660;42.664;23.266;2022-12-18T10:56:31;95814.81;;;6.20;56.30
58879;BME280;44660;42.664;23.266;2022-12-18T10:59:02;95816.72;;;6.12;56.52
58879;BME280;44660;42.664;23.266;2022-12-18T11:01:46;95720.69;;;5.38;56.21
58879;BME280;44660;42.664;23.266;2022-12-18T11:04:20;95815.69;;;5.98;56.19
58879;BME280;44660;42.664;23.266;2022-12-18T11:07:06;95783.03;;;5.84;56.46
58879;BME280;44660;42.664;23.266;2022-12-18T11:09:34;95806.00;;;6.13;56.39
58879;BME280;44660;42.664;23.266;2022-12-18T11:12:04;95817.38;;;5.99;57.00
58879;BME280;44660;42.664;23.266;2022-12-18T11:14:51;95818.44;;;6.19;57.20
58879;BME280;44660;42.664;23.266;2022-12-18T11:19:53;95816.56;;;5.98;55.79
58879;BME280;44660;42.664;23.266;2022-12-18T11:22:27;95824.94;;;6.02;55.92
58879;BME280;44660;42.664;23.266;2022-12-18T11:25:05;95827.03;;;6.07;55.71
58879;BME280;44660;42.664;23.266;2022-12-18T11:27:32;95830.38;;;6.15;55.36
58879;BME280;44660;42.664;23.266;2022-12-18T11:30:10;95826.00;;;5.78;55.03
58879;BME280;44660;42.664;23.266;2022-12-18T11:32:47;95790.63;;;5.34;55.29
58879;BME280;44660;42.664;23.266;2022-12-18T11:35:20;95820.53;;;5.64;54.69
58879;BME280;44660;42.664;23.266;2022-12-18T11:37:54;95805.22;;;5.60;54.63
58879;BME280;44660;42.664;23.266;2022-12-18T11:40:30;95823.34;;;5.63;54.94
58879;BME280;44660;42.664;23.266;2022-12-18T11:43:06;95806.22;;;5.59;55.18
58879;BME280;44660;42.664;23.266;2022-12-18T11:45:40;95823.91;;;5.73;54.46
58879;BME280;44660;42.664;23.266;2022-12-18T11:48:41;95828.25;;;5.66;54.73
58879;BME280;44660;42.664;23.266;2022-12-18T11:51:19;95801.69;;;5.52;54.53
58879;BME280;44660;42.664;23.266;2022-12-18T11:53:49;95803.13;;;5.40;55.03
58879;BME280;44660;42.664;23.266;2022-12-18T11:58:45;95815.88;;;5.51;55.73
58879;BME280;44660;42.664;23.266;2022-12-18T12:06:40;95814.38;;;5.34;55.35
58879;BME280;44660;42.664;23.266;2022-12-18T12:12:17;95815.50;;;5.16;56.31
58879;BME280;44660;42.664;23.266;2022-12-18T12:15:05;95818.16;;;5.16;56.59
58879;BME280;44660;42.664;23.266;2022-12-18T12:17:48;95720.25;;;4.81;56.69
58879;BME280;44660;42.664;23.266;2022-12-18T12:23:18;95744.41;;;5.08;56.29
58879;BME280;44660;42.664;23.266;2022-12-18T12:26:03;95801.41;;;5.47;56.10
58879;BME280;44660;42.664;23.266;2022-12-18T12:34:21;95807.03;;;5.44;56.71
58879;BME280;44660;42.664;23.266;2022-12-18T12:37:08;95822.88;;;5.59;57.05
58879;BME280;44660;42.664;23.266;2022-12-18T12:39:36;95784.66;;;5.40;58.65
58879;BME280;44660;42.664;23.266;2022-12-18T12:42:19;95824.44;;;5.68;58.57
58879;BME280;44660;42.664;23.266;2022-12-18T12:45:28;95799.66;;;5.54;60.71
58879;BME280;44660;42.664;23.266;2022-12-18T12:47:57;95809.88;;;5.58;59.55
58879;BME280;44660;42.664;23.266;2022-12-18T12:50:23;95800.13;;;5.58;59.17
58879;BME280;44660;42.664;23.266;2022-12-18T12:52:53;95768.16;;;5.38;58.76
58879;BME280;44660;42.664;23.266;2022-12-18T12:55:24;95817.78;;;5.87;58.63
58879;BME280;44660;42.664;23.266;2022-12-18T12:57:59;95836.69;;;5.99;59.53
58879;BME280;44660;42.664;23.266;2022-12-18T13:00:35;95830.50;;;6.07;58.10
58879;BME280;44660;42.664;23.266;2022-12-18T13:05:44;95833.56;;;5.96;58.70
58879;BME280;44660;42.664;23.266;2022-12-18T13:08:59;95833.75;;;6.09;58.34
58879;BME280;44660;42.664;23.266;2022-12-18T13:11:42;95831.84;;;6.18;57.58
58879;BME280;44660;42.664;23.266;2022-12-18T13:14:35;95841.69;;;6.24;57.39
58879;BME280;44660;42.664;23.266;2022-12-18T13:20:06;95853.69;;;6.27;57.63
58879;BME280;44660;42.664;23.266;2022-12-18T13:22:49;95849.94;;;6.36;57.76
58879;BME280;44660;42.664;23.266;2022-12-18T13:25:35;95836.47;;;6.31;57.17
58879;BME280;44660;42.664;23.266;2022-12-18T13:28:11;95854.75;;;6.47;56.41
58879;BME280;44660;42.664;23.266;2022-12-18T13:35:41;95859.78;;;6.42;55.46
58879;BME280;44660;42.664;23.266;2022-12-18T13:38:37;95859.63;;;6.29;55.90
58879;BME280;44660;42.664;23.266;2022-12-18T13:41:23;95860.63;;;6.28;55.64
58879;BME280;44660;42.664;23.266;2022-12-18T13:43:50;95825.47;;;6.12;55.84
58879;BME280;44660;42.664;23.266;2022-12-18T13:49:04;95868.63;;;6.34;55.89
58879;BME280;44660;42.664;23.266;2022-12-18T13:51:33;95812.09;;;5.99;55.49
58879;BME280;44660;42.664;23.266;2022-12-18T13:54:01;95858.78;;;6.28;55.65
58879;BME280;44660;42.664;23.266;2022-12-18T13:56:31;95868.72;;;6.11;55.99
58879;BME280;44660;42.664;23.266;2022-12-18T14:01:31;95881.03;;;6.19;56.16
58879;BME280;44660;42.664;23.266;2022-12-18T14:04:19;95853.53;;;5.98;56.24
58879;BME280;44660;42.664;23.266;2022-12-18T14:06:46;95882.75;;;6.12;56.70
58879;BME280;44660;42.664;23.266;2022-12-18T14:09:18;95880.56;;;6.15;56.22
58879;BME280;44660;42.664;23.266;2022-12-18T14:11:49;95876.94;;;6.16;56.37
58879;BME280;44660;42.664;23.266;2022-12-18T14:14:17;95857.63;;;6.01;56.23
58879;BME280;44660;42.664;23.266;2022-12-18T14:16:43;95873.09;;;6.04;56.08
58879;BME280;44660;42.664;23.266;2022-12-18T14:19:15;95832.81;;;5.72;55.52
58879;BME280;44660;42.664;23.266;2022-12-18T14:21:47;95898.06;;;6.16;55.20
58879;BME280;44660;42.664;23.266;2022-12-18T14:24:19;95891.44;;;5.82;54.17
58879;BME280;44660;42.664;23.266;2022-12-18T14:26:47;95899.50;;;5.66;55.04
58879;BME280;44660;42.664;23.266;2022-12-18T14:29:29;95897.91;;;5.80;55.17